Time;durP1;ratioP1;P1;durP2;ratioP2;P2;SDS_P1;SDS_P2;PMS_P1;PMS_P2;Temp;Humidity;BMP_temperature;BMP_pressure;BME280_temperature;BME280_humidity;BME280_pressure;Samples;Min_cycle;Max_cycle;Signal;HPM_P1;HPM_P2
2022/08/04 00:02:37;;;;;;;4.47;4.18;;;;;;;;;;5064042;28;20083;-64
2022/08/04 00:05:04;;;;;;;4.65;4.35;;;;;;;;;;5063579;28;20500;-63
2022/08/04 00:07:40;;;;;;;4.38;4.07;;;;;;;;;;5063270;28;20029;-63
2022/08/04 00:10:07;;;;;;;4.63;4.22;;;;;;;;;;5063035;28;20040;-63
2022/08/04 00:12:34;;;;;;;4.53;4.30;;;;;;;;;;5063399;28;20028;-63
2022/08/04 00:15:00;;;;;;;4.93;4.43;;;;;;;;;;5063639;28;20143;-62
2022/08/04 00:17:29;;;;;;;6.78;4.32;;;;;;;;;;5063780;28;20028;-63
2022/08/04 00:19:58;;;;;;;4.15;3.85;;;;;;;;;;5064020;28;20028;-64
2022/08/04 00:22:26;;;;;;;4.47;4.18;;;;;;;;;;5063283;28;20032;-63
2022/08/04 00:24:51;;;;;;;4.60;4.30;;;;;;;;;;5063738;28;20023;-64
2022/08/04 00:27:17;;;;;;;4.47;4.07;;;;;;;;;;5064316;28;20036;-64
2022/08/04 00:29:42;;;;;;;4.55;4.25;;;;;;;;;;5063631;28;20139;-63
2022/08/04 00:32:08;;;;;;;6.88;4.50;;;;;;;;;;5063579;28;20077;-63
2022/08/04 00:34:33;;;;;;;5.65;5.25;;;;;;;;;;5045334;28;20029;-64
2022/08/04 00:36:58;;;;;;;3.80;3.60;;;;;;;;;;5045605;28;20040;-63
2022/08/04 00:39:24;;;;;;;4.95;4.35;;;;;;;;;;5061420;28;20024;-63
2022/08/04 00:42:08;;;;;;;5.10;3.90;;;;;;;;;;5060367;28;20612;-61
2022/08/04 00:44:33;;;;;;;4.70;4.05;;;;;;;;;;5062921;28;20017;-62
2022/08/04 00:46:58;;;;;;;4.35;4.05;;;;;;;;;;5063920;28;20047;-64
2022/08/04 00:49:34;;;;;;;3.95;3.55;;;;;;;;;;5061199;28;20025;-62
2022/08/04 00:52:00;;;;;;;4.13;3.75;;;;;;;;;;5062992;28;20031;-64
2022/08/04 00:54:25;;;;;;;4.32;3.97;;;;;;;;;;5062975;28;20025;-63
2022/08/04 00:57:10;;;;;;;4.63;4.32;;;;;;;;;;5063446;28;20048;-70
2022/08/04 00:59:35;;;;;;;4.55;4.25;;;;;;;;;;5062678;28;20024;-64
2022/08/04 01:02:10;;;;;;;4.03;3.78;;;;;;;;;;5064130;28;20028;-64
2022/08/04 01:04:49;;;;;;;4.00;3.80;;;;;;;;;;5062213;28;20613;-64
2022/08/04 01:07:29;;;;;;;4.25;3.95;;;;;;;;;;5063546;28;20042;-64
2022/08/04 01:10:08;;;;;;;4.90;4.60;;;;;;;;;;5062986;28;20078;-64
2022/08/04 01:12:52;;;;;;;4.35;4.05;;;;;;;;;;5062594;28;20038;-65
2022/08/04 01:15:36;;;;;;;4.03;3.83;;;;;;;;;;5062674;28;20055;-63
2022/08/04 01:18:05;;;;;;;3.53;3.33;;;;;;;;;;5060545;28;20085;-63
2022/08/04 01:20:40;;;;;;;4.15;3.92;;;;;;;;;;5059607;28;20454;-63
2022/08/04 01:23:08;;;;;;;6.25;3.83;;;;;;;;;;5061275;28;20040;-63
2022/08/04 01:25:51;;;;;;;4.10;3.72;;;;;;;;;;5062656;28;20063;-62
2022/08/04 01:28:23;;;;;;;4.97;4.68;;;;;;;;;;5062314;28;20032;-63
2022/08/04 01:30:53;;;;;;;4.47;4.18;;;;;;;;;;5062391;28;20024;-62
2022/08/04 01:33:20;;;;;;;3.97;3.78;;;;;;;;;;5062154;28;20519;-63
2022/08/04 01:35:54;;;;;;;4.60;4.05;;;;;;;;;;5061971;28;20482;-62
2022/08/04 01:38:32;;;;;;;4.57;4.18;;;;;;;;;;5060535;28;20025;-63
2022/08/04 01:41:04;;;;;;;4.72;4.43;;;;;;;;;;5061773;28;20414;-63
2022/08/04 01:43:31;;;;;;;5.50;4.18;;;;;;;;;;5061258;28;20058;-63
2022/08/04 01:45:57;;;;;;;4.82;4.43;;;;;;;;;;5061400;28;20159;-64
2022/08/04 01:48:24;;;;;;;4.68;4.38;;;;;;;;;;5061537;28;20025;-63
2022/08/04 01:50:50;;;;;;;3.78;3.58;;;;;;;;;;5061334;28;20427;-64
2022/08/04 01:53:17;;;;;;;4.40;4.10;;;;;;;;;;5061490;28;20035;-63
2022/08/04 01:55:42;;;;;;;4.80;4.40;;;;;;;;;;5061585;28;20176;-63
2022/08/04 01:58:08;;;;;;;5.40;4.90;;;;;;;;;;5061703;28;20029;-64
2022/08/04 02:00:34;;;;;;;5.13;4.72;;;;;;;;;;5061884;28;20040;-63
2022/08/04 02:02:59;;;;;;;4.72;4.43;;;;;;;;;;5060206;28;20029;-64
2022/08/04 02:05:25;;;;;;;4.47;4.10;;;;;;;;;;5059181;28;20043;-64
2022/08/04 02:07:51;;;;;;;5.13;4.35;;;;;;;;;;5060818;28;20024;-64
2022/08/04 02:10:16;;;;;;;4.45;4.15;;;;;;;;;;5059599;28;20040;-64
2022/08/04 02:12:56;;;;;;;5.03;4.57;;;;;;;;;;5059232;28;20800;-64
2022/08/04 02:15:30;;;;;;;4.90;4.47;;;;;;;;;;5061957;28;20382;-64
2022/08/04 02:18:01;;;;;;;4.63;4.25;;;;;;;;;;5061700;28;20070;-63
2022/08/04 02:20:32;;;;;;;4.38;4.13;;;;;;;;;;5061780;28;20065;-64
2022/08/04 02:22:58;;;;;;;4.78;4.47;;;;;;;;;;5062078;28;20695;-64
2022/08/04 02:25:25;;;;;;;4.75;4.38;;;;;;;;;;5062133;28;20111;-64
2022/08/04 02:28:02;;;;;;;5.18;4.75;;;;;;;;;;5042841;28;20039;-64
2022/08/04 02:30:32;;;;;;;4.60;4.20;;;;;;;;;;5060987;28;20020;-63
2022/08/04 02:32:59;;;;;;;5.63;4.55;;;;;;;;;;5062326;28;20028;-64
2022/08/04 02:35:26;;;;;;;7.35;4.75;;;;;;;;;;5061568;28;20020;-63
2022/08/04 02:38:00;;;;;;;4.70;4.15;;;;;;;;;;5062045;28;20489;-64
2022/08/04 02:40:25;;;;;;;4.30;4.03;;;;;;;;;;5065521;28;20028;-64
2022/08/04 02:42:52;;;;;;;5.07;4.78;;;;;;;;;;5063692;28;20056;-64
2022/08/04 02:45:18;;;;;;;4.97;4.68;;;;;;;;;;5063338;28;20116;-63
2022/08/04 02:47:44;;;;;;;4.57;4.10;;;;;;;;;;5066239;28;20032;-64
2022/08/04 02:50:10;;;;;;;4.38;4.07;;;;;;;;;;5064875;28;20512;-63
2022/08/04 02:52:37;;;;;;;4.65;4.35;;;;;;;;;;5065303;28;20025;-63
2022/08/04 02:55:05;;;;;;;5.15;4.75;;;;;;;;;;5066078;28;20031;-63
2022/08/04 02:57:31;;;;;;;4.40;4.10;;;;;;;;;;5065320;28;20032;-64
2022/08/04 03:00:18;;;;;;;5.32;4.90;;;;;;;;;;5064466;28;20056;-64
2022/08/04 03:02:43;;;;;;;5.45;4.85;;;;;;;;;;5065333;28;20040;-64
2022/08/04 03:05:21;;;;;;;4.47;4.18;;;;;;;;;;5065142;28;20968;-64
2022/08/04 03:07:52;;;;;;;5.18;4.78;;;;;;;;;;5065866;28;20418;-64
2022/08/04 03:10:26;;;;;;;5.65;5.25;;;;;;;;;;5064940;28;20777;-64
2022/08/04 03:13:03;;;;;;;4.80;4.50;;;;;;;;;;5065437;28;20123;-64
2022/08/04 03:15:47;;;;;;;5.28;4.88;;;;;;;;;;5065011;28;20521;-65
2022/08/04 03:18:21;;;;;;;5.05;4.65;;;;;;;;;;5065605;28;20027;-64
2022/08/04 03:20:55;;;;;;;4.40;4.10;;;;;;;;;;5064660;28;20020;-64
2022/08/04 03:23:36;;;;;;;4.97;4.57;;;;;;;;;;5065149;28;20296;-64
2022/08/04 03:26:04;;;;;;;5.75;5.20;;;;;;;;;;5062618;28;20283;-65
2022/08/04 03:28:38;;;;;;;5.60;5.07;;;;;;;;;;5062946;28;20112;-64
2022/08/04 03:31:15;;;;;;;4.78;4.47;;;;;;;;;;5064935;28;20035;-64
2022/08/04 03:33:46;;;;;;;5.47;5.03;;;;;;;;;;5065373;28;20540;-63
2022/08/04 03:36:23;;;;;;;5.70;5.20;;;;;;;;;;5064287;28;20115;-64
2022/08/04 03:39:07;;;;;;;4.82;4.55;;;;;;;;;;5064767;28;20024;-63
2022/08/04 03:41:42;;;;;;;5.15;4.70;;;;;;;;;;5063718;28;20059;-63
2022/08/04 03:44:26;;;;;;;5.53;5.07;;;;;;;;;;5045592;28;20469;-63
2022/08/04 03:47:15;;;;;;;5.40;5.00;;;;;;;;;;5064337;28;20039;-64
2022/08/04 03:50:00;;;;;;;5.47;4.97;;;;;;;;;;5062713;28;20383;-64
2022/08/04 03:56:00;;;;;;;5.18;4.78;;;;;;;;;;5063798;28;20273;-63
2022/08/04 03:58:47;;;;;;;5.13;4.72;;;;;;;;;;5064942;28;20066;-63
2022/08/04 04:01:18;;;;;;;6.00;4.72;;;;;;;;;;5064768;28;20131;-63
2022/08/04 04:03:46;;;;;;;5.32;4.95;;;;;;;;;;5063731;28;20025;-64
2022/08/04 04:06:27;;;;;;;5.43;4.93;;;;;;;;;;5063821;28;20125;-64
2022/08/04 04:08:58;;;;;;;5.93;5.43;;;;;;;;;;5064257;28;20051;-64
2022/08/04 04:11:42;;;;;;;4.78;4.35;;;;;;;;;;5063300;28;20112;-64
2022/08/04 04:14:10;;;;;;;5.50;5.00;;;;;;;;;;5064064;28;20507;-64
2022/08/04 04:16:38;;;;;;;8.15;4.65;;;;;;;;;;5064059;28;20115;-64
2022/08/04 04:19:21;;;;;;;4.70;4.30;;;;;;;;;;5063516;28;20300;-64
2022/08/04 04:22:02;;;;;;;4.80;4.50;;;;;;;;;;5063615;28;20363;-64
2022/08/04 04:24:27;;;;;;;5.13;4.60;;;;;;;;;;5064017;28;20032;-64
2022/08/04 04:27:15;;;;;;;5.78;5.20;;;;;;;;;;5063355;28;20363;-64
2022/08/04 04:29:40;;;;;;;4.88;4.47;;;;;;;;;;5063813;28;20086;-64
2022/08/04 04:32:13;;;;;;;5.05;4.68;;;;;;;;;;5063868;28;20040;-65
2022/08/04 04:34:43;;;;;;;6.15;5.65;;;;;;;;;;5063817;28;20048;-63
2022/08/04 04:37:09;;;;;;;4.60;4.20;;;;;;;;;;5063249;28;20032;-64
2022/08/04 04:39:49;;;;;;;5.40;4.65;;;;;;;;;;5063219;28;20039;-64
2022/08/04 04:42:31;;;;;;;5.03;4.63;;;;;;;;;;5063100;28;20456;-63
2022/08/04 04:45:11;;;;;;;5.40;5.00;;;;;;;;;;5063367;28;20067;-63
2022/08/04 04:47:44;;;;;;;6.05;5.55;;;;;;;;;;5045529;28;20390;-64
2022/08/04 04:50:14;;;;;;;5.90;5.47;;;;;;;;;;5060029;28;20021;-64
2022/08/04 04:52:44;;;;;;;5.50;5.00;;;;;;;;;;5061810;28;20052;-63
2022/08/04 04:55:18;;;;;;;6.18;5.60;;;;;;;;;;5063451;28;20116;-64
2022/08/04 04:57:44;;;;;;;6.22;5.65;;;;;;;;;;5063125;28;20550;-63
2022/08/04 05:00:12;;;;;;;6.43;5.40;;;;;;;;;;5059698;28;20085;-63
2022/08/04 05:02:56;;;;;;;6.05;5.65;;;;;;;;;;5059792;28;20054;-64
2022/08/04 05:05:24;;;;;;;5.65;5.15;;;;;;;;;;5062805;28;21892;-66
2022/08/04 05:08:08;;;;;;;5.97;5.47;;;;;;;;;;5063276;28;20446;-63
2022/08/04 05:10:51;;;;;;;6.65;6.07;;;;;;;;;;5062840;28;20021;-63
2022/08/04 05:13:36;;;;;;;5.70;5.28;;;;;;;;;;5035157;28;20059;-64
2022/08/04 05:16:30;;;;;;;5.40;5.10;;;;;;;;;;5061158;28;20039;-65
2022/08/04 05:19:14;;;;;;;7.45;5.82;;;;;;;;;;4994273;28;20065;-63
2022/08/04 05:21:42;;;;;;;6.30;5.75;;;;;;;;;;4997487;28;20103;-64
2022/08/04 05:24:09;;;;;;;5.72;5.25;;;;;;;;;;4998939;28;20046;-64
2022/08/04 05:26:38;;;;;;;6.35;5.85;;;;;;;;;;4997508;28;20093;-64
2022/08/04 05:29:06;;;;;;;5.82;5.32;;;;;;;;;;4998605;28;20038;-64
2022/08/04 05:31:33;;;;;;;7.38;5.68;;;;;;;;;;4996536;28;20026;-63
2022/08/04 05:34:06;;;;;;;5.93;5.32;;;;;;;;;;4997701;28;20025;-64
2022/08/04 05:36:34;;;;;;;5.80;5.10;;;;;;;;;;4997773;28;20068;-64
2022/08/04 05:39:01;;;;;;;6.63;5.32;;;;;;;;;;4996752;28;20031;-65
2022/08/04 05:41:27;;;;;;;6.57;5.38;;;;;;;;;;4996569;28;20073;-63
2022/08/04 05:43:53;;;;;;;6.03;5.50;;;;;;;;;;4997486;28;20030;-64
2022/08/04 05:46:18;;;;;;;5.63;5.22;;;;;;;;;;4997291;28;20096;-64
2022/08/04 05:48:44;;;;;;;5.72;5.30;;;;;;;;;;4996780;28;20046;-63
2022/08/04 05:51:10;;;;;;;4.97;4.50;;;;;;;;;;4997580;28;20128;-63
2022/08/04 05:53:36;;;;;;;5.32;4.82;;;;;;;;;;4993604;28;20069;-64
2022/08/04 05:56:02;;;;;;;5.43;4.68;;;;;;;;;;5044639;28;20530;-64
2022/08/04 05:58:30;;;;;;;5.15;4.82;;;;;;;;;;5051232;28;20046;-65
2022/08/04 06:00:57;;;;;;;4.82;4.43;;;;;;;;;;5061498;28;20032;-64
2022/08/04 06:03:24;;;;;;;4.95;4.43;;;;;;;;;;5044167;28;20024;-63
2022/08/04 06:05:50;;;;;;;4.55;4.18;;;;;;;;;;5059639;28;20044;-63
2022/08/04 06:08:16;;;;;;;6.22;5.35;;;;;;;;;;5061123;28;20036;-64
2022/08/04 06:10:42;;;;;;;5.43;4.80;;;;;;;;;;5061717;28;20083;-64
2022/08/04 06:13:10;;;;;;;5.28;4.85;;;;;;;;;;5033002;28;20447;-64
2022/08/04 06:15:38;;;;;;;9.13;5.32;;;;;;;;;;5060843;28;20033;-62
2022/08/04 06:18:05;;;;;;;5.43;4.78;;;;;;;;;;5058956;28;20024;-64
2022/08/04 06:20:33;;;;;;;7.07;4.03;;;;;;;;;;5059733;28;20089;-65
2022/08/04 06:22:59;;;;;;;9.57;4.97;;;;;;;;;;5062012;28;20028;-64
2022/08/04 06:25:27;;;;;;;11.38;5.18;;;;;;;;;;5059492;28;20041;-64
2022/08/04 06:27:53;;;;;;;11.90;5.05;;;;;;;;;;5059403;28;20064;-64
2022/08/04 06:30:19;;;;;;;8.02;4.03;;;;;;;;;;5060265;28;20029;-64
2022/08/04 06:32:47;;;;;;;8.25;4.57;;;;;;;;;;5061700;28;20036;-63
2022/08/04 06:35:14;;;;;;;9.40;4.88;;;;;;;;;;5061801;28;20466;-64
2022/08/04 06:37:40;;;;;;;8.05;4.30;;;;;;;;;;5059518;28;20028;-63
2022/08/04 06:40:07;;;;;;;7.05;4.53;;;;;;;;;;5058270;28;20039;-63
2022/08/04 06:42:32;;;;;;;5.88;3.60;;;;;;;;;;5058050;28;20550;-63
2022/08/04 06:44:58;;;;;;;4.15;3.95;;;;;;;;;;5061871;28;20031;-63
2022/08/04 06:47:23;;;;;;;5.57;3.63;;;;;;;;;;5058782;28;20040;-63
2022/08/04 06:49:50;;;;;;;5.53;3.95;;;;;;;;;;5057350;28;20025;-62
2022/08/04 06:52:16;;;;;;;4.70;3.42;;;;;;;;;;5061462;28;20040;-62
2022/08/04 06:54:45;;;;;;;5.68;4.05;;;;;;;;;;5062260;28;20028;-62
2022/08/04 06:57:12;;;;;;;4.07;3.72;;;;;;;;;;5058796;28;20124;-63
2022/08/04 06:59:39;;;;;;;4.13;3.78;;;;;;;;;;5060840;28;20085;-62
2022/08/04 07:02:05;;;;;;;4.00;3.67;;;;;;;;;;5060880;28;20751;-62
2022/08/04 07:04:30;;;;;;;4.25;3.95;;;;;;;;;;5061241;28;20035;-63
2022/08/04 07:06:55;;;;;;;4.80;4.45;;;;;;;;;;5042164;28;20115;-63
2022/08/04 07:09:21;;;;;;;4.28;3.90;;;;;;;;;;5060659;28;20036;-64
2022/08/04 07:11:47;;;;;;;5.38;3.95;;;;;;;;;;5061135;28;20064;-63
2022/08/04 07:14:13;;;;;;;4.22;3.85;;;;;;;;;;5060735;28;20032;-64
2022/08/04 07:16:39;;;;;;;5.45;5.05;;;;;;;;;;5061366;28;20047;-64
2022/08/04 07:19:05;;;;;;;10.50;4.63;;;;;;;;;;5060513;28;20290;-65
2022/08/04 07:21:30;;;;;;;6.28;4.18;;;;;;;;;;5061262;28;20403;-63
2022/08/04 07:23:55;;;;;;;6.63;4.15;;;;;;;;;;5059935;28;20068;-64
2022/08/04 07:26:25;;;;;;;4.72;4.43;;;;;;;;;;5064874;28;20440;-64
2022/08/04 07:28:52;;;;;;;6.55;4.10;;;;;;;;;;5065128;28;20029;-64
2022/08/04 07:31:18;;;;;;;3.60;3.40;;;;;;;;;;5045126;28;20081;-64
2022/08/04 07:33:44;;;;;;;3.83;3.63;;;;;;;;;;5043452;28;20505;-64
2022/08/04 07:36:09;;;;;;;4.60;4.30;;;;;;;;;;5063145;28;20060;-64
2022/08/04 07:38:35;;;;;;;4.65;4.25;;;;;;;;;;5061401;28;20236;-64
2022/08/04 07:41:02;;;;;;;4.18;3.95;;;;;;;;;;5062097;28;20071;-64
2022/08/04 07:43:28;;;;;;;6.68;4.25;;;;;;;;;;5064630;28;20035;-64
2022/08/04 07:45:54;;;;;;;5.53;4.45;;;;;;;;;;5064612;28;20051;-64
2022/08/04 07:48:21;;;;;;;4.53;4.22;;;;;;;;;;5046417;28;20025;-64
2022/08/04 07:50:47;;;;;;;4.63;4.30;;;;;;;;;;5064566;28;20393;-65
2022/08/04 07:53:12;;;;;;;5.28;4.70;;;;;;;;;;5064521;28;20028;-64
2022/08/04 07:55:38;;;;;;;5.90;5.15;;;;;;;;;;5044983;28;20032;-64
2022/08/04 07:58:03;;;;;;;4.43;4.13;;;;;;;;;;5063246;28;20033;-63
2022/08/04 08:00:28;;;;;;;5.22;4.78;;;;;;;;;;5062397;28;20391;-65
2022/08/04 08:02:55;;;;;;;5.13;4.10;;;;;;;;;;5061492;28;20028;-64
2022/08/04 08:05:20;;;;;;;4.25;3.92;;;;;;;;;;5062387;28;20115;-63
2022/08/04 08:07:46;;;;;;;5.03;4.63;;;;;;;;;;5064302;28;20039;-63
2022/08/04 08:10:13;;;;;;;6.13;5.07;;;;;;;;;;5063740;28;20039;-64
2022/08/04 08:12:38;;;;;;;5.38;4.93;;;;;;;;;;5064042;28;20055;-64
2022/08/04 08:15:04;;;;;;;5.07;4.57;;;;;;;;;;5064333;28;20482;-63
2022/08/04 08:17:29;;;;;;;7.80;4.80;;;;;;;;;;5063783;28;20035;-64
2022/08/04 08:19:55;;;;;;;6.30;4.38;;;;;;;;;;5064323;28;20032;-64
2022/08/04 08:22:20;;;;;;;4.65;4.38;;;;;;;;;;5045846;28;20104;-64
2022/08/04 08:24:45;;;;;;;5.22;4.78;;;;;;;;;;5062890;28;20060;-68
2022/08/04 08:27:10;;;;;;;5.35;4.85;;;;;;;;;;5044869;28;20040;-68
2022/08/04 08:29:36;;;;;;;8.52;4.68;;;;;;;;;;5062105;28;20282;-67
2022/08/04 08:32:02;;;;;;;5.00;4.35;;;;;;;;;;5060713;28;20057;-67
2022/08/04 08:34:28;;;;;;;5.35;4.82;;;;;;;;;;5062090;28;20120;-68
2022/08/04 08:37:08;;;;;;;9.63;6.15;;;;;;;;;;5063609;28;20032;-67
2022/08/04 08:39:37;;;;;;;6.50;4.93;;;;;;;;;;5062578;28;20109;-67
2022/08/04 08:42:21;;;;;;;5.78;4.53;;;;;;;;;;5062077;28;20514;-67
2022/08/04 08:44:52;;;;;;;5.10;4.68;;;;;;;;;;5061859;28;20028;-66
2022/08/04 08:47:17;;;;;;;6.13;5.57;;;;;;;;;;5062606;28;20035;-65
2022/08/04 08:49:45;;;;;;;6.22;5.68;;;;;;;;;;5061030;28;20457;-66
2022/08/04 08:52:13;;;;;;;5.28;4.88;;;;;;;;;;5060515;28;20111;-68
2022/08/04 08:54:54;;;;;;;4.47;4.20;;;;;;;;;;5062495;28;20037;-66
2022/08/04 08:57:38;;;;;;;4.60;4.30;;;;;;;;;;5042686;28;20036;-67
2022/08/04 09:00:10;;;;;;;4.67;4.33;;;;;;;;;;5058714;28;20028;-67
2022/08/04 09:02:42;;;;;;;5.75;4.30;;;;;;;;;;5061850;28;20263;-67
2022/08/04 09:05:16;;;;;;;4.45;4.15;;;;;;;;;;5060723;28;20012;-62
2022/08/04 09:07:47;;;;;;;5.18;4.88;;;;;;;;;;5062370;28;20033;-65
2022/08/04 09:10:31;;;;;;;6.55;4.18;;;;;;;;;;5062288;28;20012;-67
2022/08/04 09:13:00;;;;;;;6.63;4.40;;;;;;;;;;5061770;28;20024;-62
2022/08/04 09:15:25;;;;;;;4.47;4.18;;;;;;;;;;5061175;28;20027;-63
2022/08/04 09:18:09;;;;;;;4.25;3.92;;;;;;;;;;5062268;28;20387;-60
2022/08/04 09:20:39;;;;;;;6.07;4.45;;;;;;;;;;5060217;28;20024;-62
2022/08/04 09:23:07;;;;;;;4.95;4.55;;;;;;;;;;5059459;28;20135;-64
2022/08/04 09:26:02;;;;;;;4.65;4.25;;;;;;;;;;5057379;28;20021;-65
2022/08/04 09:28:29;;;;;;;5.07;4.70;;;;;;;;;;5041022;28;20036;-64
2022/08/04 09:31:12;;;;;;;5.50;3.92;;;;;;;;;;5057128;28;20349;-64
2022/08/04 09:33:37;;;;;;;5.53;4.22;;;;;;;;;;5060517;28;20017;-66
2022/08/04 09:36:22;;;;;;;4.33;4.00;;;;;;;;;;5057414;28;20027;-66
2022/08/04 09:38:48;;;;;;;4.97;4.55;;;;;;;;;;5041291;28;20765;-65
2022/08/04 09:41:30;;;;;;;5.15;4.68;;;;;;;;;;5060887;28;20040;-66
2022/08/04 09:44:04;;;;;;;4.72;4.43;;;;;;;;;;5060402;28;20026;-65
2022/08/04 09:46:45;;;;;;;4.85;4.40;;;;;;;;;;5059074;28;20098;-65
2022/08/04 09:49:20;;;;;;;4.47;4.10;;;;;;;;;;5055353;28;20525;-66
2022/08/04 09:51:45;;;;;;;4.22;3.92;;;;;;;;;;5058573;28;20614;-65
2022/08/04 09:54:18;;;;;;;4.90;4.60;;;;;;;;;;5039384;28;20020;-65
2022/08/04 09:57:02;;;;;;;4.75;4.45;;;;;;;;;;5058810;28;20059;-66
2022/08/04 09:59:32;;;;;;;4.80;4.25;;;;;;;;;;5057720;28;20028;-65
2022/08/04 10:02:00;;;;;;;5.20;4.85;;;;;;;;;;5059186;28;20485;-64
2022/08/04 10:04:28;;;;;;;5.45;4.95;;;;;;;;;;5057227;28;20012;-65
2022/08/04 10:07:05;;;;;;;5.80;5.30;;;;;;;;;;5040437;28;20477;-64
2022/08/04 10:09:42;;;;;;;4.75;4.45;;;;;;;;;;5060115;28;20425;-62
2022/08/04 10:12:17;;;;;;;4.47;4.10;;;;;;;;;;5057740;28;20129;-61
2022/08/04 10:15:11;;;;;;;4.95;4.38;;;;;;;;;;5058140;28;20055;-62
2022/08/04 10:17:41;;;;;;;4.20;3.90;;;;;;;;;;4976857;28;20049;-63
2022/08/04 10:20:08;;;;;;;4.95;4.65;;;;;;;;;;4963073;28;20026;-64
2022/08/04 10:22:38;;;;;;;5.63;4.35;;;;;;;;;;4975349;28;20480;-63
2022/08/04 10:25:19;;;;;;;4.30;4.07;;;;;;;;;;4960817;28;20030;-63
2022/08/04 10:27:53;;;;;;;5.00;4.80;;;;;;;;;;4975540;28;20100;-63
2022/08/04 10:30:19;;;;;;;5.10;4.70;;;;;;;;;;4976487;28;20039;-62
2022/08/04 10:32:49;;;;;;;4.85;4.60;;;;;;;;;;4977358;28;20445;-69
2022/08/04 10:35:22;;;;;;;5.82;4.90;;;;;;;;;;4976056;28;20367;-68
2022/08/04 10:38:03;;;;;;;5.00;4.70;;;;;;;;;;4977746;28;20041;-68
2022/08/04 10:40:48;;;;;;;4.47;4.28;;;;;;;;;;4977730;28;20104;-69
2022/08/04 10:43:20;;;;;;;4.88;4.60;;;;;;;;;;4974772;28;20570;-68
2022/08/04 10:46:06;;;;;;;5.75;5.30;;;;;;;;;;4976621;28;20050;-69
2022/08/04 10:48:34;;;;;;;5.07;4.75;;;;;;;;;;4975231;28;20038;-68
2022/08/04 10:51:10;;;;;;;4.80;4.55;;;;;;;;;;4976261;28;20131;-70
2022/08/04 10:53:36;;;;;;;4.82;4.53;;;;;;;;;;4983644;28;20391;-68
2022/08/04 10:56:04;;;;;;;4.25;4.05;;;;;;;;;;5040079;28;20399;-68
2022/08/04 10:58:33;;;;;;;4.63;4.32;;;;;;;;;;5039783;28;20100;-67
2022/08/04 11:01:01;;;;;;;4.38;3.97;;;;;;;;;;5033353;28;20612;-68
2022/08/04 11:03:33;;;;;;;5.43;4.95;;;;;;;;;;5042572;28;20511;-60
2022/08/04 11:06:01;;;;;;;4.38;4.18;;;;;;;;;;5041490;28;20040;-63
2022/08/04 11:08:35;;;;;;;4.13;3.88;;;;;;;;;;5043367;28;20116;-62
2022/08/04 11:11:13;;;;;;;5.10;4.60;;;;;;;;;;5041925;28;20468;-61
2022/08/04 11:13:44;;;;;;;4.65;4.35;;;;;;;;;;5046337;28;20367;-63
2022/08/04 11:16:15;;;;;;;5.00;4.60;;;;;;;;;;5040733;28;20039;-63
2022/08/04 11:19:05;;;;;;;5.28;4.68;;;;;;;;;;5043992;28;20039;-62
2022/08/04 11:21:32;;;;;;;5.30;4.80;;;;;;;;;;5043177;28;20025;-63
2022/08/04 11:24:16;;;;;;;5.63;5.07;;;;;;;;;;5041775;28;20032;-62
2022/08/04 11:26:55;;;;;;;4.68;4.43;;;;;;;;;;5040796;28;20038;-64
2022/08/04 11:29:24;;;;;;;4.97;4.78;;;;;;;;;;5045017;28;20194;-64
2022/08/04 11:31:49;;;;;;;4.70;4.32;;;;;;;;;;5044991;28;20033;-63
2022/08/04 11:34:22;;;;;;;5.07;4.68;;;;;;;;;;5037636;28;20086;-63
2022/08/04 11:37:06;;;;;;;5.53;5.18;;;;;;;;;;5043451;28;20440;-63
2022/08/04 11:39:34;;;;;;;5.20;4.80;;;;;;;;;;5043623;28;20031;-63
2022/08/04 11:42:09;;;;;;;5.13;4.72;;;;;;;;;;5054761;28;20475;-64
2022/08/04 11:44:40;;;;;;;5.47;5.07;;;;;;;;;;5060461;28;21014;-64
2022/08/04 11:47:17;;;;;;;4.88;4.57;;;;;;;;;;5061160;28;20028;-64
2022/08/04 11:49:44;;;;;;;5.00;4.57;;;;;;;;;;5062955;28;20039;-63
2022/08/04 11:52:12;;;;;;;4.32;4.03;;;;;;;;;;5044728;28;20300;-64
2022/08/04 11:54:38;;;;;;;3.95;3.67;;;;;;;;;;5059335;28;20024;-63
2022/08/04 11:57:04;;;;;;;6.43;4.80;;;;;;;;;;5060098;28;20086;-63
2022/08/04 11:59:30;;;;;;;5.05;4.80;;;;;;;;;;5063002;28;20032;-63
2022/08/04 12:02:14;;;;;;;4.18;3.97;;;;;;;;;;5061739;28;20025;-63
2022/08/04 12:04:53;;;;;;;3.90;3.67;;;;;;;;;;5062896;28;20103;-64
2022/08/04 12:07:24;;;;;;;5.40;5.00;;;;;;;;;;5062471;28;20119;-63
2022/08/04 12:10:10;;;;;;;6.40;5.47;;;;;;;;;;5062728;28;20352;-63
2022/08/04 12:12:36;;;;;;;4.72;4.47;;;;;;;;;;5062323;28;20036;-63
2022/08/04 12:15:01;;;;;;;5.53;4.70;;;;;;;;;;5062995;28;20330;-64
2022/08/04 12:17:30;;;;;;;4.72;4.43;;;;;;;;;;5062645;28;20462;-63
2022/08/04 12:19:57;;;;;;;4.75;4.40;;;;;;;;;;5062071;28;20021;-63
2022/08/04 12:22:23;;;;;;;5.40;5.00;;;;;;;;;;5061336;28;20061;-65
2022/08/04 12:25:07;;;;;;;4.85;4.65;;;;;;;;;;5062043;28;20024;-64
2022/08/04 12:27:39;;;;;;;4.88;4.57;;;;;;;;;;5062150;28;20040;-63
2022/08/04 12:30:04;;;;;;;4.72;4.43;;;;;;;;;;5062095;28;20554;-63
2022/08/04 12:32:36;;;;;;;4.28;3.88;;;;;;;;;;5061804;28;20028;-63
2022/08/04 12:35:12;;;;;;;4.63;4.22;;;;;;;;;;5036517;28;20111;-63
2022/08/04 12:37:42;;;;;;;4.47;4.20;;;;;;;;;;5061573;28;20060;-64
2022/08/04 12:40:12;;;;;;;4.72;4.53;;;;;;;;;;5043554;28;20324;-64
2022/08/04 12:42:44;;;;;;;5.10;4.82;;;;;;;;;;5061351;28;20048;-64
2022/08/04 12:45:10;;;;;;;4.97;4.75;;;;;;;;;;5060552;28;20379;-63
2022/08/04 12:47:36;;;;;;;5.28;4.88;;;;;;;;;;5061873;28;20032;-64
2022/08/04 12:50:02;;;;;;;4.25;3.95;;;;;;;;;;5062003;28;20107;-63
2022/08/04 12:52:48;;;;;;;4.03;3.72;;;;;;;;;;5036015;28;20483;-62
2022/08/04 12:55:14;;;;;;;4.43;4.20;;;;;;;;;;5061065;28;20040;-62
2022/08/04 12:57:40;;;;;;;4.55;4.35;;;;;;;;;;5062043;28;20127;-63
2022/08/04 13:00:06;;;;;;;4.63;4.10;;;;;;;;;;5061130;28;20467;-66
2022/08/04 13:02:36;;;;;;;3.58;3.47;;;;;;;;;;5064060;28;20035;-62
2022/08/04 13:05:03;;;;;;;3.88;3.70;;;;;;;;;;5061604;28;20343;-61
2022/08/04 13:07:40;;;;;;;5.30;5.00;;;;;;;;;;5061061;28;20497;-61
2022/08/04 13:10:12;;;;;;;5.53;4.50;;;;;;;;;;5060503;28;20027;-61
2022/08/04 13:12:39;;;;;;;5.43;5.03;;;;;;;;;;5061632;28;20024;-61
2022/08/04 13:15:09;;;;;;;4.57;4.28;;;;;;;;;;5062141;28;20072;-62
2022/08/04 13:17:44;;;;;;;5.07;4.68;;;;;;;;;;5061300;28;20037;-62
2022/08/04 13:20:09;;;;;;;4.30;4.10;;;;;;;;;;5043702;28;20103;-64
2022/08/04 13:22:35;;;;;;;4.07;3.88;;;;;;;;;;5060675;28;20039;-61
2022/08/04 13:25:01;;;;;;;8.75;4.55;;;;;;;;;;5061696;28;20705;-62
2022/08/04 13:27:27;;;;;;;5.40;4.82;;;;;;;;;;5060363;28;20049;-61
2022/08/04 13:29:54;;;;;;;4.88;4.57;;;;;;;;;;5060658;28;20078;-61
2022/08/04 13:32:21;;;;;;;5.93;4.00;;;;;;;;;;5061518;28;20520;-63
2022/08/04 13:34:48;;;;;;;6.10;4.45;;;;;;;;;;5042918;28;20032;-63
2022/08/04 13:37:14;;;;;;;4.85;4.50;;;;;;;;;;5061514;28;20131;-64
2022/08/04 13:39:44;;;;;;;5.15;4.78;;;;;;;;;;5062990;28;20033;-64
2022/08/04 13:42:11;;;;;;;4.57;4.38;;;;;;;;;;5061058;28;20076;-61
2022/08/04 13:44:37;;;;;;;4.00;3.80;;;;;;;;;;5060471;28;20036;-63
2022/08/04 13:47:07;;;;;;;4.60;4.40;;;;;;;;;;5061190;28;20044;-66
2022/08/04 13:49:32;;;;;;;5.22;4.70;;;;;;;;;;5061051;28;20035;-64
2022/08/04 13:51:59;;;;;;;4.47;4.18;;;;;;;;;;5061531;28;20017;-63
2022/08/04 13:54:44;;;;;;;5.38;4.88;;;;;;;;;;5060640;28;20494;-63
2022/08/04 13:57:11;;;;;;;4.57;4.38;;;;;;;;;;5060652;28;20550;-66
2022/08/04 13:59:37;;;;;;;5.05;4.85;;;;;;;;;;5061369;28;20035;-64
2022/08/04 14:02:04;;;;;;;4.50;4.20;;;;;;;;;;5061884;28;20274;-64
2022/08/04 14:04:33;;;;;;;5.35;4.95;;;;;;;;;;5060989;28;20458;-64
2022/08/04 14:07:05;;;;;;;3.67;3.58;;;;;;;;;;5062693;28;20029;-63
2022/08/04 14:09:31;;;;;;;4.13;3.92;;;;;;;;;;5060748;28;20032;-64
2022/08/04 14:12:03;;;;;;;5.47;5.10;;;;;;;;;;5061680;28;20576;-63
2022/08/04 14:14:30;;;;;;;5.43;5.13;;;;;;;;;;5061414;28;20028;-63
2022/08/04 14:16:59;;;;;;;4.43;4.20;;;;;;;;;;5060850;28;20035;-63
2022/08/04 14:19:24;;;;;;;4.13;3.92;;;;;;;;;;5061148;28;20096;-63
2022/08/04 14:21:49;;;;;;;4.43;4.15;;;;;;;;;;5061258;28;20029;-63
2022/08/04 14:24:22;;;;;;;4.55;4.18;;;;;;;;;;5040843;28;20027;-63
2022/08/04 14:26:47;;;;;;;4.35;4.15;;;;;;;;;;5059098;28;20087;-63
2022/08/04 14:29:13;;;;;;;4.13;3.72;;;;;;;;;;5061209;28;20481;-62
2022/08/04 14:31:39;;;;;;;4.50;4.30;;;;;;;;;;5043797;28;20489;-62
2022/08/04 14:34:05;;;;;;;4.70;4.00;;;;;;;;;;5061624;28;20036;-62
2022/08/04 14:36:40;;;;;;;4.18;3.97;;;;;;;;;;5061962;28;20087;-62
2022/08/04 14:39:06;;;;;;;4.70;3.95;;;;;;;;;;5061025;28;20025;-61
2022/08/04 14:41:43;;;;;;;4.88;4.43;;;;;;;;;;5061497;28;20086;-62
2022/08/04 14:44:08;;;;;;;5.60;4.45;;;;;;;;;;5061476;28;20107;-61
2022/08/04 14:46:47;;;;;;;5.03;4.63;;;;;;;;;;5061397;28;20436;-62
2022/08/04 14:49:13;;;;;;;10.25;4.68;;;;;;;;;;5059989;28;20550;-60
2022/08/04 14:51:42;;;;;;;4.72;4.43;;;;;;;;;;5061033;28;20089;-60
2022/08/04 14:54:12;;;;;;;3.58;3.40;;;;;;;;;;5060756;28;20032;-60
2022/08/04 14:56:38;;;;;;;5.38;4.88;;;;;;;;;;5061426;28;20353;-60
2022/08/04 14:59:05;;;;;;;5.10;4.90;;;;;;;;;;5061092;28;20028;-60
2022/08/04 15:01:31;;;;;;;4.97;4.20;;;;;;;;;;5061709;28;20094;-60
2022/08/04 15:03:59;;;;;;;6.53;4.70;;;;;;;;;;5060311;28;20066;-60
2022/08/04 15:06:25;;;;;;;4.97;4.53;;;;;;;;;;5061901;28;20544;-59
2022/08/04 15:08:51;;;;;;;4.38;4.18;;;;;;;;;;5060554;28;20501;-59